createdAt,value
2022-10-17T00:01:55.290Z,99950.36
2022-10-17T00:04:26.012Z,99949.13
2022-10-17T00:06:57.204Z,99950.06
2022-10-17T00:09:28.512Z,99949.63
2022-10-17T00:11:59.865Z,99950.91
2022-10-17T00:14:30.584Z,99955.05
2022-10-17T00:17:01.323Z,99960.40
2022-10-17T00:19:31.963Z,99959.92
2022-10-17T00:22:02.868Z,99965.23
2022-10-17T00:24:34.969Z,99964.06
2022-10-17T00:27:05.692Z,99964.73
2022-10-17T00:29:36.791Z,99962.49
2022-10-17T00:32:08.022Z,99961.11
2022-10-17T00:34:38.638Z,99964.00
2022-10-17T00:37:09.427Z,99965.44
2022-10-17T00:39:40.317Z,99964.33
2022-10-17T00:42:13.660Z,99958.72
2022-10-17T00:45:09.205Z,99961.60
2022-10-17T00:47:40.632Z,99967.45
2022-10-17T00:50:13.572Z,99967.31
2022-10-17T00:52:45.303Z,99970.28
2022-10-17T00:55:21.192Z,99966.30
2022-10-17T00:57:53.016Z,99970.36
2022-10-17T01:00:25.093Z,99968.52
2022-10-17T01:02:56.017Z,99967.20
2022-10-17T01:05:27.096Z,99967.73
2022-10-17T01:07:58.108Z,99967.54
2022-10-17T01:10:35.835Z,99969.35
2022-10-17T01:13:14.812Z,99965.16
2022-10-17T01:15:59.797Z,99966.19
2022-10-17T01:18:42.103Z,99967.79
2022-10-17T01:21:34.588Z,99967.81
2022-10-17T01:24:34.517Z,99967.62
2022-10-17T01:27:50.151Z,99971.49
2022-10-17T01:30:36.988Z,99978.16
2022-10-17T01:33:12.129Z,99982.53
2022-10-17T01:35:47.977Z,99981.49
2022-10-17T01:38:24.292Z,99982.19
2022-10-17T01:41:01.785Z,99983.92
2022-10-17T01:43:39.747Z,99980.77
2022-10-17T01:46:17.379Z,99980.66
2022-10-17T01:48:48.972Z,99977.58
2022-10-17T01:51:24.093Z,99975.13
2022-10-17T01:53:59.634Z,99969.63
2022-10-17T01:56:33.671Z,99968.48
2022-10-17T01:59:11.262Z,99970.63
2022-10-17T02:01:45.403Z,99975.58
2022-10-17T02:04:16.596Z,99970.26
2022-10-17T02:06:47.182Z,99973.38
2022-10-17T02:09:27.004Z,99972.77
2022-10-17T02:12:29.233Z,99977.01
2022-10-17T02:15:37.688Z,99983.41
2022-10-17T02:18:25.669Z,99975.80
2022-10-17T02:21:02.546Z,99976.20
2022-10-17T02:23:43.174Z,99973.50
2022-10-17T02:26:20.458Z,99973.13
2022-10-17T02:29:02.662Z,99973.73
2022-10-17T02:31:39.268Z,99979.84
2022-10-17T02:34:14.494Z,99983.08
2022-10-17T02:36:48.884Z,99984.35
2022-10-17T02:39:21.745Z,99985.13
2022-10-17T02:41:53.858Z,99985.91
2022-10-17T02:44:26.156Z,99983.07
2022-10-17T02:47:04.369Z,99982.38
2022-10-17T02:49:40.508Z,99979.14
2022-10-17T02:52:15.818Z,99979.17
2022-10-17T02:54:52.976Z,99978.45
2022-10-17T02:57:28.532Z,99984.40
2022-10-17T03:00:02.443Z,99985.40
2022-10-17T03:02:42.393Z,99983.98
2022-10-17T03:05:16.558Z,99983.81
2022-10-17T03:07:47.325Z,99979.30
2022-10-17T03:10:18.760Z,99981.34
2022-10-17T03:12:49.684Z,99988.77
2022-10-17T03:15:20.548Z,99996.10
2022-10-17T03:17:51.493Z,99995.67
2022-10-17T03:20:22.510Z,99996.77
2022-10-17T03:22:53.366Z,100000.96
2022-10-17T03:25:24.293Z,100004.70
2022-10-17T03:27:55.008Z,100003.20
2022-10-17T03:30:25.703Z,100002.38
2022-10-17T03:32:58.461Z,100004.17
2022-10-17T03:35:29.306Z,100008.15
2022-10-17T03:37:59.880Z,100013.68
2022-10-17T03:40:30.795Z,100014.08
2022-10-17T03:43:01.419Z,100014.96
2022-10-17T03:45:32.037Z,100016.94
2022-10-17T03:48:03.015Z,100015.13
2022-10-17T03:50:33.646Z,100018.46
2022-10-17T03:53:04.252Z,100017.16
2022-10-17T03:55:35.020Z,100014.02
2022-10-17T03:58:05.712Z,100011.88
2022-10-17T04:00:38.706Z,100012.83
2022-10-17T04:03:12.609Z,100013.33
2022-10-17T04:05:45.954Z,100016.31
2022-10-17T04:08:16.562Z,100016.82
2022-10-17T04:10:47.552Z,100017.37
2022-10-17T04:13:18.443Z,100021.38
2022-10-17T04:15:58.592Z,100023.18
2022-10-17T04:18:29.562Z,100023.24
2022-10-17T04:21:02.177Z,100024.39
2022-10-17T04:23:33.299Z,100024.25
2022-10-17T04:26:05.753Z,100028.79
2022-10-17T04:31:15.819Z,100025.58
2022-10-17T04:33:45.141Z,100026.81
2022-10-17T04:36:18.039Z,100030.34
2022-10-17T04:38:48.696Z,100026.06
2022-10-17T04:41:21.151Z,100029.23
2022-10-17T04:43:51.787Z,100034.11
2022-10-17T04:46:22.519Z,100035.74
2022-10-17T04:48:53.163Z,100029.96
2022-10-17T04:51:26.510Z,100033.64
2022-10-17T04:53:57.780Z,100032.05
2022-10-17T04:56:28.697Z,100036.48
2022-10-17T04:59:00.826Z,100035.40
2022-10-17T05:01:31.968Z,100035.20
2022-10-17T05:04:02.621Z,100032.59
2022-10-17T05:06:33.693Z,100034.80
2022-10-17T05:09:05.355Z,100039.12
2022-10-17T05:11:36.020Z,100039.18
2022-10-17T05:14:07.297Z,100040.66
2022-10-17T05:16:37.934Z,100041.09
2022-10-17T05:19:08.671Z,100042.69
2022-10-17T05:21:39.932Z,100042.39
2022-10-17T05:24:12.895Z,100041.55
2022-10-17T05:26:43.716Z,100038.41
2022-10-17T05:29:14.880Z,100041.24
2022-10-17T05:31:45.636Z,100042.67
2022-10-17T05:34:16.373Z,100043.27
2022-10-17T05:36:47.281Z,100046.65
2022-10-17T05:39:19.812Z,100047.95
2022-10-17T05:41:51.341Z,100054.69
2022-10-17T05:44:22.235Z,100052.69
2022-10-17T05:46:52.930Z,100059.49
2022-10-17T05:49:39.801Z,100059.96
2022-10-17T05:52:14.361Z,100062.77
2022-10-17T05:54:45.099Z,100066.83
2022-10-17T05:57:15.939Z,100069.40
2022-10-17T05:59:46.667Z,100073.45
2022-10-17T06:02:17.553Z,100077.34
2022-10-17T06:04:49.482Z,100079.98
2022-10-17T06:07:20.108Z,100080.91
2022-10-17T06:09:50.840Z,100082.66
2022-10-17T06:12:21.900Z,100086.13
2022-10-17T06:14:52.563Z,100084.53
2022-10-17T06:17:23.375Z,100088.61
2022-10-17T06:19:54.197Z,100086.63
2022-10-17T06:22:25.055Z,100088.36
2022-10-17T06:24:56.001Z,100090.19
2022-10-17T06:27:26.739Z,100093.55
2022-10-17T06:29:57.550Z,100097.94
2022-10-17T06:32:28.436Z,100101.73
2022-10-17T06:34:59.288Z,100109.28
2022-10-17T06:37:36.587Z,100115.50
2022-10-17T06:40:12.092Z,100116.80
2022-10-17T06:42:42.710Z,100116.15
2022-10-17T06:45:14.050Z,100122.73
2022-10-17T06:47:44.643Z,100124.91
2022-10-17T06:50:15.337Z,100127.36
2022-10-17T06:52:46.093Z,100126.58
2022-10-17T06:55:19.647Z,100129.84
2022-10-17T06:57:55.230Z,100131.55
2022-10-17T07:00:26.864Z,100134.41
2022-10-17T07:02:57.548Z,100137.74
2022-10-17T07:05:28.694Z,100143.52
2022-10-17T07:07:59.388Z,100144.52
2022-10-17T07:10:30.774Z,100147.03
2022-10-17T07:13:01.482Z,100150.08
2022-10-17T07:15:32.863Z,100149.27
2022-10-17T07:18:03.576Z,100159.31
2022-10-17T07:20:34.955Z,100161.72
2022-10-17T07:23:05.686Z,100164.27
2022-10-17T07:25:40.145Z,100163.61
2022-10-17T07:28:11.125Z,100167.98
2022-10-17T07:30:41.938Z,100166.97
2022-10-17T07:33:12.947Z,100170.88
2022-10-17T07:35:43.641Z,100170.29
2022-10-17T07:38:14.625Z,100170.70
2022-10-17T07:40:45.329Z,100178.77
2022-10-17T07:43:15.883Z,100172.23
2022-10-17T07:45:46.569Z,100177.70
2022-10-17T07:48:17.371Z,100181.67
2022-10-17T07:50:48.109Z,100182.58
2022-10-17T07:53:19.101Z,100185.35
2022-10-17T07:55:49.823Z,100182.44
2022-10-17T07:58:20.752Z,100187.58
2022-10-17T08:00:51.684Z,100185.50
2022-10-17T08:03:22.696Z,100187.20
2022-10-17T08:05:53.572Z,100187.04
2022-10-17T08:08:24.170Z,100186.58
2022-10-17T08:10:55.401Z,100181.73
2022-10-17T08:13:26.286Z,100178.23
2022-10-17T08:15:59.683Z,100181.84
2022-10-17T08:18:30.527Z,100180.08
2022-10-17T08:21:06.232Z,100180.69
2022-10-17T08:23:37.737Z,100182.71
2022-10-17T08:26:13.226Z,100181.52
2022-10-17T08:28:44.586Z,100184.02
2022-10-17T08:31:18.216Z,100179.00
2022-10-17T08:33:47.931Z,100182.55
2022-10-17T08:36:20.631Z,100180.38
2022-10-17T08:38:52.982Z,100178.27
2022-10-17T08:41:41.063Z,100183.55
2022-10-17T08:44:21.348Z,100185.34
2022-10-17T08:46:59.021Z,100182.73
2022-10-17T08:49:40.411Z,100184.78
2022-10-17T08:52:23.080Z,100184.38
2022-10-17T08:54:54.150Z,100186.75
2022-10-17T08:57:25.103Z,100186.41
2022-10-17T08:59:57.012Z,100183.98
2022-10-17T09:02:42.609Z,100182.61
2022-10-17T09:05:23.979Z,100175.64
2022-10-17T09:08:07.645Z,100172.26
2022-10-17T09:10:47.840Z,100169.00
2022-10-17T09:13:32.055Z,100165.88
2022-10-17T09:16:17.581Z,100167.91
2022-10-17T09:18:56.333Z,100167.25
2022-10-17T09:21:35.039Z,100167.20
2022-10-17T09:24:15.809Z,100164.17
2022-10-17T09:26:48.080Z,100167.51
2022-10-17T09:29:29.603Z,100162.30
2022-10-17T09:32:12.512Z,100160.41
2022-10-17T09:34:43.191Z,100157.34
2022-10-17T09:37:16.654Z,100155.55
2022-10-17T09:39:47.865Z,100152.46
2022-10-17T09:42:22.135Z,100149.89
2022-10-17T09:44:58.655Z,100153.67
2022-10-17T09:47:35.745Z,100154.51
2022-10-17T09:50:10.207Z,100153.61
2022-10-17T09:52:47.711Z,100156.60
2022-10-17T09:55:23.702Z,100151.16
2022-10-17T09:58:02.081Z,100153.70
2022-10-17T10:00:34.751Z,100151.10
2022-10-17T10:03:15.964Z,100152.95
2022-10-17T10:06:01.758Z,100157.86
2022-10-17T10:08:36.087Z,100154.93
2022-10-17T10:11:13.767Z,100151.73
2022-10-17T10:13:46.940Z,100153.21
2022-10-17T10:16:26.381Z,100158.20
2022-10-17T10:18:57.254Z,100155.77
2022-10-17T10:21:29.233Z,100159.26
2022-10-17T10:24:14.964Z,100158.81
2022-10-17T10:26:48.292Z,100153.84
2022-10-17T10:29:31.215Z,100149.17
2022-10-17T10:32:11.232Z,100147.91
2022-10-17T10:34:54.417Z,100146.55
2022-10-17T10:37:27.708Z,100146.30
2022-10-17T10:39:58.233Z,100144.65
2022-10-17T10:42:32.629Z,100141.66
2022-10-17T10:45:29.307Z,100142.84
2022-10-17T10:48:21.188Z,100141.05
2022-10-17T10:50:55.372Z,100138.71
2022-10-17T10:53:35.539Z,100137.33
2022-10-17T10:56:12.228Z,100132.21
2022-10-17T10:58:50.843Z,100135.39
2022-10-17T11:01:30.516Z,100131.49
2022-10-17T11:04:13.170Z,100134.02
2022-10-17T11:06:47.984Z,100135.88
2022-10-17T11:09:34.219Z,100130.68
2022-10-17T11:12:11.605Z,100123.94
2022-10-17T11:14:48.179Z,100128.63
2022-10-17T11:17:30.694Z,100128.58
2022-10-17T11:20:12.457Z,100128.16
2022-10-17T11:22:47.772Z,100126.61
2022-10-17T11:25:30.617Z,100123.61
2022-10-17T11:28:04.929Z,100120.77
2022-10-17T11:30:53.304Z,100119.99
2022-10-17T11:33:29.656Z,100117.45
2022-10-17T11:36:06.806Z,100113.86
2022-10-17T11:38:46.869Z,100109.02
2022-10-17T11:41:24.129Z,100106.74
2022-10-17T11:43:58.156Z,100104.07
2022-10-17T11:46:30.658Z,100100.56
2022-10-17T11:49:16.115Z,100097.52
2022-10-17T11:52:00.469Z,100099.10
2022-10-17T11:54:36.383Z,100095.23
2022-10-17T11:57:20.593Z,100095.58
2022-10-17T12:00:04.105Z,100096.71
2022-10-17T12:02:42.945Z,100091.99
2022-10-17T12:05:25.323Z,100094.02
2022-10-17T12:08:01.920Z,100097.02
2022-10-17T12:10:40.606Z,100096.30
2022-10-17T12:13:45.871Z,100092.48
2022-10-17T12:16:44.654Z,100087.20
2022-10-17T12:19:30.740Z,100088.48
2022-10-17T12:22:04.460Z,100083.23
2022-10-17T12:24:41.888Z,100079.05
2022-10-17T12:27:36.187Z,100077.34
2022-10-17T12:30:16.989Z,100075.83
2022-10-17T12:33:06.658Z,100074.69
2022-10-17T12:35:40.033Z,100074.71
2022-10-17T12:38:26.055Z,100075.80
2022-10-17T12:41:05.258Z,100076.64
2022-10-17T12:43:55.846Z,100076.07
2022-10-17T12:46:48.341Z,100076.61
2022-10-17T12:49:39.924Z,100075.98
2022-10-17T12:52:17.512Z,100072.83
2022-10-17T12:55:00.166Z,100075.64
2022-10-17T12:57:49.826Z,100072.48
2022-10-17T13:00:26.583Z,100065.60
2022-10-17T13:03:04.954Z,100067.38
2022-10-17T13:05:38.710Z,100062.20
2022-10-17T13:08:18.911Z,100057.19
2022-10-17T13:10:52.683Z,100057.29
2022-10-17T13:13:28.558Z,100059.16
2022-10-17T13:15:59.316Z,100062.84
2022-10-17T13:18:31.409Z,100066.83
2022-10-17T13:21:03.979Z,100068.41
2022-10-17T13:23:38.641Z,100066.83
2022-10-17T13:26:15.666Z,100070.08
2022-10-17T13:28:47.060Z,100078.14
2022-10-17T13:31:36.627Z,100078.73
2022-10-17T13:34:17.213Z,100078.15
2022-10-17T13:36:50.890Z,100077.91
2022-10-17T13:39:38.435Z,100080.92
2022-10-17T13:42:25.855Z,100076.70
2022-10-17T13:44:57.065Z,100076.48
2022-10-17T13:47:31.334Z,100075.70
2022-10-17T13:50:02.414Z,100075.33
2022-10-17T13:52:33.907Z,100073.83
2022-10-17T13:55:17.883Z,100073.09
2022-10-17T13:57:48.837Z,100067.77
2022-10-17T14:00:22.997Z,100065.98
2022-10-17T14:02:54.034Z,100065.70
2022-10-17T14:05:25.061Z,100062.94
2022-10-17T14:08:11.201Z,100066.48
2022-10-17T14:10:44.642Z,100066.08
2022-10-17T14:13:23.537Z,100065.94
2022-10-17T14:15:56.192Z,100068.08
2022-10-17T14:18:35.759Z,100063.73
2022-10-17T14:21:36.937Z,100065.40
2022-10-17T14:24:17.001Z,100060.52
2022-10-17T14:26:52.764Z,100060.89
2022-10-17T14:29:28.287Z,100061.98
2022-10-17T14:32:09.632Z,100056.52
2022-10-17T14:34:43.057Z,100054.20
2022-10-17T14:37:13.238Z,100052.29
2022-10-17T14:39:44.441Z,100055.17
2022-10-17T14:42:22.535Z,100060.36
2022-10-17T14:44:55.810Z,100057.58
2022-10-17T14:47:43.102Z,100062.89
2022-10-17T14:50:26.775Z,100065.16
2022-10-17T14:53:06.722Z,100071.15
2022-10-17T14:55:39.568Z,100071.15
2022-10-17T14:58:22.591Z,100065.00
2022-10-17T15:00:53.579Z,100058.02
2022-10-17T15:03:25.127Z,100062.15
2022-10-17T15:05:56.871Z,100058.55
2022-10-17T15:08:27.656Z,100057.27
2022-10-17T15:10:58.677Z,100063.02
2022-10-17T15:13:32.310Z,100060.56
2022-10-17T15:16:15.355Z,100061.77
2022-10-17T15:18:46.448Z,100069.71
2022-10-17T15:21:33.656Z,100070.24
2022-10-17T15:24:09.557Z,100071.66
2022-10-17T15:26:40.747Z,100073.06
2022-10-17T15:29:15.866Z,100073.23
2022-10-17T15:31:46.629Z,100068.64
2022-10-17T15:34:25.463Z,100074.86
2022-10-17T15:36:56.459Z,100077.63
2022-10-17T15:39:27.249Z,100075.69
2022-10-17T15:41:58.968Z,100082.90
2022-10-17T15:44:30.651Z,100088.45
2022-10-17T15:47:05.059Z,100089.42
2022-10-17T15:49:35.834Z,100090.77
2022-10-17T15:52:06.913Z,100093.16
2022-10-17T15:54:37.714Z,100097.37
2022-10-17T15:57:13.680Z,100091.41
2022-10-17T15:59:46.996Z,100090.48
2022-10-17T16:02:19.777Z,100088.70
2022-10-17T16:04:51.915Z,100091.17
2022-10-17T16:07:23.567Z,100092.27
2022-10-17T16:09:54.444Z,100093.25
2022-10-17T16:12:31.416Z,100095.29
2022-10-17T16:15:02.704Z,100099.13
2022-10-17T16:17:33.727Z,100096.40
2022-10-17T16:20:04.949Z,100099.41
2022-10-17T16:22:37.184Z,100100.45
2022-10-17T16:25:19.593Z,100101.48
2022-10-17T16:27:52.982Z,100106.41
2022-10-17T16:30:25.196Z,100111.83
2022-10-17T16:32:57.061Z,100117.10
2022-10-17T16:35:33.101Z,100121.35
2022-10-17T16:38:08.049Z,100122.86
2022-10-17T16:40:41.152Z,100129.09
2022-10-17T16:43:13.629Z,100130.97
2022-10-17T16:45:44.573Z,100138.79
2022-10-17T16:48:15.369Z,100138.28
2022-10-17T16:50:46.169Z,100132.94
2022-10-17T16:53:17.063Z,100139.14
2022-10-17T16:55:47.808Z,100137.60
2022-10-17T16:58:18.711Z,100141.43
2022-10-17T17:00:49.464Z,100145.02
2022-10-17T17:03:43.127Z,100138.63
2022-10-17T17:06:16.654Z,100133.70
2022-10-17T17:08:48.101Z,100133.23
2022-10-17T17:11:21.149Z,100136.73
2022-10-17T17:13:52.483Z,100130.59
2022-10-17T17:16:24.812Z,100133.13
2022-10-17T17:18:59.149Z,100136.18
2022-10-17T17:21:31.713Z,100135.14
2022-10-17T17:24:03.908Z,100137.27
2022-10-17T17:26:37.051Z,100136.29
2022-10-17T17:29:08.357Z,100135.27
2022-10-17T17:31:39.567Z,100136.84
2022-10-17T17:34:13.080Z,100133.36
2022-10-17T17:36:47.174Z,100131.12
2022-10-17T17:39:18.413Z,100136.13
2022-10-17T17:41:49.539Z,100138.58
2022-10-17T17:44:20.454Z,100143.92
2022-10-17T17:46:51.603Z,100143.39
2022-10-17T17:49:22.732Z,100136.55
2022-10-17T17:51:53.721Z,100138.58
2022-10-17T17:54:25.147Z,100141.85
2022-10-17T17:56:56.226Z,100142.77
2022-10-17T17:59:27.159Z,100146.44
2022-10-17T18:01:58.309Z,100150.39
2022-10-17T18:04:29.454Z,100156.07
2022-10-17T18:07:00.362Z,100162.89
2022-10-17T18:09:31.269Z,100159.02
2022-10-17T18:12:02.243Z,100152.69
2022-10-17T18:14:33.217Z,100144.63
2022-10-17T18:17:04.327Z,100143.33
2022-10-17T18:19:35.216Z,100140.54
2022-10-17T18:22:06.115Z,100143.71
2022-10-17T18:24:36.979Z,100142.71
2022-10-17T18:27:08.111Z,100146.09
2022-10-17T18:29:39.136Z,100154.82
2022-10-17T18:32:11.009Z,100154.82
2022-10-17T18:34:44.506Z,100157.42
2022-10-17T18:37:13.913Z,100153.91
2022-10-17T18:39:45.276Z,100150.41
2022-10-17T18:42:16.176Z,100152.09
2022-10-17T18:44:48.198Z,100149.66
2022-10-17T18:47:19.154Z,100147.11
2022-10-17T18:49:50.061Z,100151.52
2022-10-17T18:52:21.310Z,100150.69
2022-10-17T18:54:52.146Z,100151.32
2022-10-17T18:57:26.037Z,100157.35
2022-10-17T18:59:57.416Z,100158.35
2022-10-17T19:02:28.365Z,100159.55
2022-10-17T19:04:59.243Z,100157.23
2022-10-17T19:07:30.306Z,100156.40
2022-10-17T19:10:01.564Z,100157.42
2022-10-17T19:12:32.434Z,100158.83
2022-10-17T19:15:03.160Z,100157.12
2022-10-17T19:17:33.950Z,100155.85
2022-10-17T19:20:05.410Z,100151.66
2022-10-17T19:22:36.362Z,100151.54
2022-10-17T19:25:08.254Z,100146.31
2022-10-17T19:27:39.627Z,100146.79
2022-10-17T19:30:13.052Z,100150.20
2022-10-17T19:32:42.334Z,100144.22
2022-10-17T19:35:13.580Z,100146.52
2022-10-17T19:37:44.427Z,100143.70
2022-10-17T19:40:16.011Z,100140.90
2022-10-17T19:42:47.258Z,100145.89
2022-10-17T19:45:18.415Z,100141.49
2022-10-17T19:47:49.377Z,100146.10
2022-10-17T19:50:21.535Z,100143.06
2022-10-17T19:52:52.695Z,100140.43
2022-10-17T19:55:23.557Z,100144.05
2022-10-17T19:57:54.468Z,100146.84
2022-10-17T20:00:25.238Z,100151.28
2022-10-17T20:02:56.276Z,100153.08
2022-10-17T20:05:28.264Z,100148.04
2022-10-17T20:07:59.324Z,100147.36
2022-10-17T20:10:30.275Z,100147.10
2022-10-17T20:13:01.100Z,100150.56
2022-10-17T20:15:32.049Z,100148.52
2022-10-17T20:18:03.207Z,100151.31
2022-10-17T20:20:34.879Z,100151.77
2022-10-17T20:23:06.482Z,100144.52
2022-10-17T20:25:38.363Z,100146.22
2022-10-17T20:28:09.519Z,100149.73
2022-10-17T20:30:43.940Z,100148.66
2022-10-17T20:33:15.932Z,100148.48
2022-10-17T20:35:46.692Z,100155.91
2022-10-17T20:38:17.696Z,100153.77
2022-10-17T20:40:48.721Z,100156.35
2022-10-17T20:43:19.801Z,100154.77
2022-10-17T20:45:52.076Z,100157.67
2022-10-17T20:48:24.146Z,100159.92
2022-10-17T20:50:55.319Z,100159.94
2022-10-17T20:53:36.991Z,100157.59
2022-10-17T20:56:11.590Z,100153.71
2022-10-17T20:58:42.415Z,100155.85
2022-10-17T21:01:13.578Z,100156.25
2022-10-17T21:03:46.499Z,100158.46
2022-10-17T21:06:18.638Z,100157.49
2022-10-17T21:08:50.493Z,100152.98
2022-10-17T21:11:23.678Z,100152.57
2022-10-17T21:13:59.230Z,100152.20
2022-10-17T21:16:31.600Z,100150.30
2022-10-17T21:19:02.760Z,100156.80
2022-10-17T21:21:35.003Z,100159.77
2022-10-17T21:24:09.126Z,100163.67
2022-10-17T21:26:40.507Z,100161.23
2022-10-17T21:29:13.215Z,100159.39
2022-10-17T21:31:45.663Z,100163.93
2022-10-17T21:34:18.922Z,100169.97
2022-10-17T21:36:50.188Z,100178.33
2022-10-17T21:39:21.882Z,100177.59
2022-10-17T21:41:53.088Z,100176.92
2022-10-17T21:44:25.245Z,100172.79
2022-10-17T21:46:57.039Z,100171.98
2022-10-17T21:49:29.859Z,100172.93
2022-10-17T21:52:03.845Z,100175.30
2022-10-17T21:54:34.688Z,100169.70
2022-10-17T21:57:05.583Z,100170.44
2022-10-17T21:59:36.382Z,100169.52
2022-10-17T22:02:07.086Z,100168.54
2022-10-17T22:04:37.919Z,100166.06
2022-10-17T22:07:08.680Z,100159.61
2022-10-17T22:09:39.421Z,100160.16
2022-10-17T22:12:10.344Z,100158.75
2022-10-17T22:14:40.967Z,100157.11
2022-10-17T22:17:11.536Z,100157.36
2022-10-17T22:19:42.214Z,100155.02
2022-10-17T22:22:12.906Z,100161.80
2022-10-17T22:24:43.641Z,100160.25
2022-10-17T22:27:14.345Z,100162.29
2022-10-17T22:29:45.015Z,100165.67
2022-10-17T22:32:19.974Z,100165.88
2022-10-17T22:34:53.554Z,100163.50
2022-10-17T22:37:24.497Z,100160.86
2022-10-17T22:39:55.164Z,100158.27
2022-10-17T22:42:26.026Z,100159.44
2022-10-17T22:44:56.676Z,100153.48
2022-10-17T22:47:27.420Z,100152.96
2022-10-17T22:49:58.527Z,100152.23
2022-10-17T22:52:29.577Z,100146.61
2022-10-17T22:55:00.786Z,100148.79
2022-10-17T22:57:31.531Z,100141.16
2022-10-17T23:00:02.250Z,100142.37
2022-10-17T23:02:33.388Z,100146.73
2022-10-17T23:05:05.156Z,100144.48
2022-10-17T23:07:36.012Z,100144.17
2022-10-17T23:10:08.011Z,100144.63
2022-10-17T23:12:38.714Z,100146.80
2022-10-17T23:15:11.855Z,100147.67
2022-10-17T23:17:42.546Z,100145.70
2022-10-17T23:20:13.667Z,100147.58
2022-10-17T23:22:44.539Z,100141.26
2022-10-17T23:25:15.247Z,100138.79
2022-10-17T23:27:46.009Z,100137.98
2022-10-17T23:30:17.499Z,100138.34
2022-10-17T23:32:48.201Z,100137.48
2022-10-17T23:35:19.267Z,100134.94
2022-10-17T23:37:49.849Z,100136.56
2022-10-17T23:40:20.800Z,100135.19
2022-10-17T23:42:51.771Z,100136.82
2022-10-17T23:45:22.760Z,100137.83
2022-10-17T23:47:53.813Z,100141.26
2022-10-17T23:50:24.445Z,100143.68
2022-10-17T23:52:55.335Z,100142.88
2022-10-17T23:55:26.276Z,100143.12
2022-10-17T23:57:57.015Z,100140.59
